sensor_id;sensor_type;location;lat;lon;timestamp;temperature;humidity
46139;DHT22;32398;49.112;8.598;2023-08-07T00:00:18;14.20;94.70
46139;DHT22;32398;49.112;8.598;2023-08-07T00:02:45;14.20;94.70
46139;DHT22;32398;49.112;8.598;2023-08-07T00:05:11;14.20;95.00
46139;DHT22;32398;49.112;8.598;2023-08-07T00:07:38;14.10;94.70
46139;DHT22;32398;49.112;8.598;2023-08-07T00:10:05;14.20;94.70
46139;DHT22;32398;49.112;8.598;2023-08-07T00:12:32;14.20;94.70
46139;DHT22;32398;49.112;8.598;2023-08-07T00:15:00;14.20;94.70
46139;DHT22;32398;49.112;8.598;2023-08-07T00:17:27;14.20;94.70
46139;DHT22;32398;49.112;8.598;2023-08-07T00:19:53;14.10;94.60
46139;DHT22;32398;49.112;8.598;2023-08-07T00:22:20;14.10;94.60
46139;DHT22;32398;49.112;8.598;2023-08-07T00:24:46;14.10;94.60
46139;DHT22;32398;49.112;8.598;2023-08-07T00:27:13;14.10;94.70
46139;DHT22;32398;49.112;8.598;2023-08-07T00:29:39;14.10;94.70
46139;DHT22;32398;49.112;8.598;2023-08-07T00:32:08;14.10;94.70
46139;DHT22;32398;49.112;8.598;2023-08-07T00:34:34;14.10;94.70
46139;DHT22;32398;49.112;8.598;2023-08-07T00:37:01;14.10;94.60
46139;DHT22;32398;49.112;8.598;2023-08-07T00:39:28;14.00;94.60
46139;DHT22;32398;49.112;8.598;2023-08-07T00:41:54;14.10;94.60
46139;DHT22;32398;49.112;8.598;2023-08-07T00:44:21;14.00;94.60
46139;DHT22;32398;49.112;8.598;2023-08-07T00:46:48;14.00;94.60
46139;DHT22;32398;49.112;8.598;2023-08-07T00:49:16;14.00;94.60
46139;DHT22;32398;49.112;8.598;2023-08-07T00:51:43;14.00;94.60
46139;DHT22;32398;49.112;8.598;2023-08-07T00:54:11;14.00;94.60
46139;DHT22;32398;49.112;8.598;2023-08-07T00:56:38;14.00;94.50
46139;DHT22;32398;49.112;8.598;2023-08-07T00:59:05;14.00;94.50
46139;DHT22;32398;49.112;8.598;2023-08-07T01:01:32;14.00;94.50
46139;DHT22;32398;49.112;8.598;2023-08-07T01:03:58;14.00;94.40
46139;DHT22;32398;49.112;8.598;2023-08-07T01:06:26;14.00;94.40
46139;DHT22;32398;49.112;8.598;2023-08-07T01:08:53;14.00;94.40
46139;DHT22;32398;49.112;8.598;2023-08-07T01:11:21;13.90;94.40
46139;DHT22;32398;49.112;8.598;2023-08-07T01:13:51;13.90;94.40
46139;DHT22;32398;49.112;8.598;2023-08-07T01:16:18;13.90;94.30
46139;DHT22;32398;49.112;8.598;2023-08-07T01:18:46;13.90;94.30
46139;DHT22;32398;49.112;8.598;2023-08-07T01:21:16;13.90;94.30
46139;DHT22;32398;49.112;8.598;2023-08-07T01:23:44;13.90;94.30
46139;DHT22;32398;49.112;8.598;2023-08-07T01:26:11;13.90;94.30
46139;DHT22;32398;49.112;8.598;2023-08-07T01:28:38;13.90;94.30
46139;DHT22;32398;49.112;8.598;2023-08-07T01:31:08;13.90;94.30
46139;DHT22;32398;49.112;8.598;2023-08-07T01:33:39;13.90;94.30
46139;DHT22;32398;49.112;8.598;2023-08-07T01:36:09;13.80;94.20
46139;DHT22;32398;49.112;8.598;2023-08-07T01:38:37;13.80;94.10
46139;DHT22;32398;49.112;8.598;2023-08-07T01:41:05;13.80;94.20
46139;DHT22;32398;49.112;8.598;2023-08-07T01:43:32;13.80;94.10
46139;DHT22;32398;49.112;8.598;2023-08-07T01:45:58;13.80;94.10
46139;DHT22;32398;49.112;8.598;2023-08-07T01:48:25;13.80;94.10
46139;DHT22;32398;49.112;8.598;2023-08-07T01:50:52;13.80;94.00
46139;DHT22;32398;49.112;8.598;2023-08-07T01:53:19;13.80;94.00
46139;DHT22;32398;49.112;8.598;2023-08-07T01:55:45;13.70;93.90
46139;DHT22;32398;49.112;8.598;2023-08-07T01:58:13;13.70;93.90
46139;DHT22;32398;49.112;8.598;2023-08-07T02:00:40;13.80;93.90
46139;DHT22;32398;49.112;8.598;2023-08-07T02:03:06;13.70;93.90
46139;DHT22;32398;49.112;8.598;2023-08-07T02:05:33;13.70;93.90
46139;DHT22;32398;49.112;8.598;2023-08-07T02:07:59;13.70;93.90
46139;DHT22;32398;49.112;8.598;2023-08-07T02:10:26;13.70;93.90
46139;DHT22;32398;49.112;8.598;2023-08-07T02:12:53;13.70;93.90
46139;DHT22;32398;49.112;8.598;2023-08-07T02:15:21;13.70;93.90
46139;DHT22;32398;49.112;8.598;2023-08-07T02:17:47;13.70;93.90
46139;DHT22;32398;49.112;8.598;2023-08-07T02:20:14;13.70;93.90
46139;DHT22;32398;49.112;8.598;2023-08-07T02:22:40;13.70;93.90
46139;DHT22;32398;49.112;8.598;2023-08-07T02:25:07;13.70;93.90
46139;DHT22;32398;49.112;8.598;2023-08-07T02:27:34;13.70;93.90
46139;DHT22;32398;49.112;8.598;2023-08-07T02:30:01;13.70;93.90
46139;DHT22;32398;49.112;8.598;2023-08-07T02:32:30;13.70;93.90
46139;DHT22;32398;49.112;8.598;2023-08-07T02:34:56;13.60;93.80
46139;DHT22;32398;49.112;8.598;2023-08-07T02:37:23;13.70;93.80
46139;DHT22;32398;49.112;8.598;2023-08-07T02:39:50;13.60;93.70
46139;DHT22;32398;49.112;8.598;2023-08-07T02:42:16;13.60;93.70
46139;DHT22;32398;49.112;8.598;2023-08-07T02:44:43;13.60;93.60
46139;DHT22;32398;49.112;8.598;2023-08-07T02:47:10;13.60;93.60
46139;DHT22;32398;49.112;8.598;2023-08-07T02:49:38;13.60;93.60
46139;DHT22;32398;49.112;8.598;2023-08-07T02:52:04;13.60;93.60
46139;DHT22;32398;49.112;8.598;2023-08-07T02:54:31;13.60;93.50
46139;DHT22;32398;49.112;8.598;2023-08-07T02:56:57;13.60;93.50
46139;DHT22;32398;49.112;8.598;2023-08-07T02:59:24;13.60;93.50
46139;DHT22;32398;49.112;8.598;2023-08-07T03:01:50;13.50;93.50
46139;DHT22;32398;49.112;8.598;2023-08-07T03:04:17;13.60;93.50
46139;DHT22;32398;49.112;8.598;2023-08-07T03:06:45;13.50;93.50
46139;DHT22;32398;49.112;8.598;2023-08-07T03:09:11;13.50;93.50
46139;DHT22;32398;49.112;8.598;2023-08-07T03:11:38;13.50;93.50
46139;DHT22;32398;49.112;8.598;2023-08-07T03:14:04;13.50;93.50
46139;DHT22;32398;49.112;8.598;2023-08-07T03:16:31;13.50;93.50
46139;DHT22;32398;49.112;8.598;2023-08-07T03:18:58;13.50;93.50
46139;DHT22;32398;49.112;8.598;2023-08-07T03:21:24;13.50;93.60
46139;DHT22;32398;49.112;8.598;2023-08-07T03:23:52;13.40;93.50
46139;DHT22;32398;49.112;8.598;2023-08-07T03:26:18;13.50;93.60
46139;DHT22;32398;49.112;8.598;2023-08-07T03:28:45;13.50;93.60
46139;DHT22;32398;49.112;8.598;2023-08-07T03:31:13;13.50;93.60
46139;DHT22;32398;49.112;8.598;2023-08-07T03:33:40;13.50;93.60
46139;DHT22;32398;49.112;8.598;2023-08-07T03:36:06;13.50;93.60
46139;DHT22;32398;49.112;8.598;2023-08-07T03:38:33;13.50;93.60
46139;DHT22;32398;49.112;8.598;2023-08-07T03:41:01;13.50;93.60
46139;DHT22;32398;49.112;8.598;2023-08-07T03:43:27;13.50;93.60
46139;DHT22;32398;49.112;8.598;2023-08-07T03:45:54;13.50;93.60
46139;DHT22;32398;49.112;8.598;2023-08-07T03:48:21;13.50;93.60
46139;DHT22;32398;49.112;8.598;2023-08-07T03:50:48;13.50;93.60
46139;DHT22;32398;49.112;8.598;2023-08-07T03:53:15;13.40;93.60
46139;DHT22;32398;49.112;8.598;2023-08-07T03:55:41;13.50;93.60
46139;DHT22;32398;49.112;8.598;2023-08-07T03:58:09;13.40;93.60
46139;DHT22;32398;49.112;8.598;2023-08-07T04:00:36;13.40;93.60
46139;DHT22;32398;49.112;8.598;2023-08-07T04:03:02;13.40;93.70
46139;DHT22;32398;49.112;8.598;2023-08-07T04:05:29;13.50;93.70
46139;DHT22;32398;49.112;8.598;2023-08-07T04:07:58;13.40;93.60
46139;DHT22;32398;49.112;8.598;2023-08-07T04:10:25;13.50;93.70
46139;DHT22;32398;49.112;8.598;2023-08-07T04:12:52;13.40;93.60
46139;DHT22;32398;49.112;8.598;2023-08-07T04:15:19;13.40;94.00
46139;DHT22;32398;49.112;8.598;2023-08-07T04:17:46;13.40;93.60
46139;DHT22;32398;49.112;8.598;2023-08-07T04:20:12;13.40;93.60
46139;DHT22;32398;49.112;8.598;2023-08-07T04:22:39;13.40;93.60
46139;DHT22;32398;49.112;8.598;2023-08-07T04:25:06;13.40;93.60
46139;DHT22;32398;49.112;8.598;2023-08-07T04:27:32;13.40;93.60
46139;DHT22;32398;49.112;8.598;2023-08-07T04:29:59;13.40;93.60
46139;DHT22;32398;49.112;8.598;2023-08-07T04:32:27;13.40;93.70
46139;DHT22;32398;49.112;8.598;2023-08-07T04:34:54;13.40;93.60
46139;DHT22;32398;49.112;8.598;2023-08-07T04:37:20;13.40;93.70
46139;DHT22;32398;49.112;8.598;2023-08-07T04:39:47;13.40;93.70
46139;DHT22;32398;49.112;8.598;2023-08-07T04:42:14;13.40;93.70
46139;DHT22;32398;49.112;8.598;2023-08-07T04:44:40;13.40;93.70
46139;DHT22;32398;49.112;8.598;2023-08-07T04:47:07;13.40;93.70
46139;DHT22;32398;49.112;8.598;2023-08-07T04:49:35;13.40;93.70
46139;DHT22;32398;49.112;8.598;2023-08-07T04:52:01;13.30;93.60
46139;DHT22;32398;49.112;8.598;2023-08-07T04:54:28;13.30;93.60
46139;DHT22;32398;49.112;8.598;2023-08-07T04:56:54;13.30;93.60
46139;DHT22;32398;49.112;8.598;2023-08-07T04:59:21;13.30;93.60
46139;DHT22;32398;49.112;8.598;2023-08-07T05:01:48;13.30;93.60
46139;DHT22;32398;49.112;8.598;2023-08-07T05:04:14;13.30;93.60
46139;DHT22;32398;49.112;8.598;2023-08-07T05:06:42;13.30;93.60
46139;DHT22;32398;49.112;8.598;2023-08-07T05:09:08;13.30;93.60
46139;DHT22;32398;49.112;8.598;2023-08-07T05:11:35;13.30;93.60
46139;DHT22;32398;49.112;8.598;2023-08-07T05:14:02;13.30;94.00
46139;DHT22;32398;49.112;8.598;2023-08-07T05:16:29;13.30;93.60
46139;DHT22;32398;49.112;8.598;2023-08-07T05:18:55;13.30;93.60
46139;DHT22;32398;49.112;8.598;2023-08-07T05:21:22;13.30;93.40
46139;DHT22;32398;49.112;8.598;2023-08-07T05:23:50;13.30;93.50
46139;DHT22;32398;49.112;8.598;2023-08-07T05:26:18;13.30;93.60
46139;DHT22;32398;49.112;8.598;2023-08-07T05:28:45;13.30;93.60
46139;DHT22;32398;49.112;8.598;2023-08-07T05:31:11;13.30;93.70
46139;DHT22;32398;49.112;8.598;2023-08-07T05:33:38;13.30;93.60
46139;DHT22;32398;49.112;8.598;2023-08-07T05:36:05;13.30;93.60
46139;DHT22;32398;49.112;8.598;2023-08-07T05:38:32;13.30;93.60
46139;DHT22;32398;49.112;8.598;2023-08-07T05:40:59;13.30;93.60
46139;DHT22;32398;49.112;8.598;2023-08-07T05:43:26;13.30;93.60
46139;DHT22;32398;49.112;8.598;2023-08-07T05:45:52;13.30;93.50
46139;DHT22;32398;49.112;8.598;2023-08-07T05:48:19;13.30;93.50
46139;DHT22;32398;49.112;8.598;2023-08-07T05:50:46;13.30;93.50
46139;DHT22;32398;49.112;8.598;2023-08-07T05:53:13;13.30;93.50
46139;DHT22;32398;49.112;8.598;2023-08-07T05:55:39;13.30;93.50
46139;DHT22;32398;49.112;8.598;2023-08-07T05:58:08;13.40;93.50
46139;DHT22;32398;49.112;8.598;2023-08-07T06:00:35;13.40;93.40
46139;DHT22;32398;49.112;8.598;2023-08-07T06:03:01;13.40;93.40
46139;DHT22;32398;49.112;8.598;2023-08-07T06:05:28;13.40;93.40
46139;DHT22;32398;49.112;8.598;2023-08-07T06:07:55;13.40;93.40
46139;DHT22;32398;49.112;8.598;2023-08-07T06:10:21;13.40;93.40
46139;DHT22;32398;49.112;8.598;2023-08-07T06:12:48;13.40;93.40
46139;DHT22;32398;49.112;8.598;2023-08-07T06:15:16;13.40;93.40
46139;DHT22;32398;49.112;8.598;2023-08-07T06:17:42;13.40;93.30
46139;DHT22;32398;49.112;8.598;2023-08-07T06:20:09;13.40;93.30
46139;DHT22;32398;49.112;8.598;2023-08-07T06:22:36;13.40;93.30
46139;DHT22;32398;49.112;8.598;2023-08-07T06:25:03;13.40;93.30
46139;DHT22;32398;49.112;8.598;2023-08-07T06:27:31;13.50;93.40
46139;DHT22;32398;49.112;8.598;2023-08-07T06:29:57;13.40;93.30
46139;DHT22;32398;49.112;8.598;2023-08-07T06:32:26;13.40;93.30
46139;DHT22;32398;49.112;8.598;2023-08-07T06:34:52;13.50;93.30
46139;DHT22;32398;49.112;8.598;2023-08-07T06:37:19;13.50;93.30
46139;DHT22;32398;49.112;8.598;2023-08-07T06:39:45;13.50;93.30
46139;DHT22;32398;49.112;8.598;2023-08-07T06:42:12;13.50;93.30
46139;DHT22;32398;49.112;8.598;2023-08-07T06:44:39;13.50;93.20
46139;DHT22;32398;49.112;8.598;2023-08-07T06:47:06;13.50;93.20
46139;DHT22;32398;49.112;8.598;2023-08-07T06:49:34;13.60;93.50
46139;DHT22;32398;49.112;8.598;2023-08-07T06:52:00;13.50;93.10
46139;DHT22;32398;49.112;8.598;2023-08-07T06:54:27;13.50;93.10
46139;DHT22;32398;49.112;8.598;2023-08-07T06:56:53;13.50;93.10
46139;DHT22;32398;49.112;8.598;2023-08-07T06:59:20;13.60;93.10
46139;DHT22;32398;49.112;8.598;2023-08-07T07:01:47;13.60;93.40
46139;DHT22;32398;49.112;8.598;2023-08-07T07:04:13;13.60;93.00
46139;DHT22;32398;49.112;8.598;2023-08-07T07:06:41;13.60;93.00
46139;DHT22;32398;49.112;8.598;2023-08-07T07:09:07;13.60;93.00
46139;DHT22;32398;49.112;8.598;2023-08-07T07:11:34;13.60;92.90
46139;DHT22;32398;49.112;8.598;2023-08-07T07:14:01;13.60;92.90
46139;DHT22;32398;49.112;8.598;2023-08-07T07:16:27;13.60;92.80
46139;DHT22;32398;49.112;8.598;2023-08-07T07:18:54;13.60;92.80
46139;DHT22;32398;49.112;8.598;2023-08-07T07:21:21;13.60;92.80
46139;DHT22;32398;49.112;8.598;2023-08-07T07:23:49;13.70;92.80
46139;DHT22;32398;49.112;8.598;2023-08-07T07:26:15;13.70;92.80
46139;DHT22;32398;49.112;8.598;2023-08-07T07:28:42;13.70;92.80
46139;DHT22;32398;49.112;8.598;2023-08-07T07:31:08;13.70;92.80
46139;DHT22;32398;49.112;8.598;2023-08-07T07:33:36;13.70;92.80
46139;DHT22;32398;49.112;8.598;2023-08-07T07:36:04;13.70;92.80
46139;DHT22;32398;49.112;8.598;2023-08-07T07:38:31;13.80;92.80
46139;DHT22;32398;49.112;8.598;2023-08-07T07:40:59;13.80;92.80
46139;DHT22;32398;49.112;8.598;2023-08-07T07:43:26;13.80;92.80
46139;DHT22;32398;49.112;8.598;2023-08-07T07:45:52;13.80;92.80
46139;DHT22;32398;49.112;8.598;2023-08-07T07:48:19;13.80;92.80
46139;DHT22;32398;49.112;8.598;2023-08-07T07:50:45;13.80;92.70
46139;DHT22;32398;49.112;8.598;2023-08-07T07:53:12;13.90;92.70
46139;DHT22;32398;49.112;8.598;2023-08-07T07:55:38;13.90;92.60
46139;DHT22;32398;49.112;8.598;2023-08-07T07:58:06;13.90;92.50
46139;DHT22;32398;49.112;8.598;2023-08-07T08:00:33;13.90;92.40
46139;DHT22;32398;49.112;8.598;2023-08-07T08:02:59;13.90;92.20
46139;DHT22;32398;49.112;8.598;2023-08-07T08:05:26;13.90;92.10
46139;DHT22;32398;49.112;8.598;2023-08-07T08:07:52;13.90;92.10
46139;DHT22;32398;49.112;8.598;2023-08-07T08:10:19;13.90;92.00
46139;DHT22;32398;49.112;8.598;2023-08-07T08:12:46;14.00;92.00
46139;DHT22;32398;49.112;8.598;2023-08-07T08:15:14;14.00;91.80
46139;DHT22;32398;49.112;8.598;2023-08-07T08:17:40;14.00;91.80
46139;DHT22;32398;49.112;8.598;2023-08-07T08:20:07;14.00;91.80
46139;DHT22;32398;49.112;8.598;2023-08-07T08:22:34;14.00;91.70
46139;DHT22;32398;49.112;8.598;2023-08-07T08:49:30;14.40;90.80
46139;DHT22;32398;49.112;8.598;2023-08-07T08:51:59;14.40;90.70
46139;DHT22;32398;49.112;8.598;2023-08-07T08:54:26;14.40;90.70
46139;DHT22;32398;49.112;8.598;2023-08-07T08:56:52;14.50;90.60
46139;DHT22;32398;49.112;8.598;2023-08-07T08:59:20;14.50;90.40
46139;DHT22;32398;49.112;8.598;2023-08-07T09:01:47;14.50;90.40
46139;DHT22;32398;49.112;8.598;2023-08-07T09:04:14;14.50;90.30
46139;DHT22;32398;49.112;8.598;2023-08-07T09:06:42;14.50;90.30
46139;DHT22;32398;49.112;8.598;2023-08-07T09:09:09;14.60;90.30
46139;DHT22;32398;49.112;8.598;2023-08-07T09:11:37;14.60;90.20
46139;DHT22;32398;49.112;8.598;2023-08-07T09:14:04;14.60;90.10
46139;DHT22;32398;49.112;8.598;2023-08-07T09:16:31;14.70;90.20
46139;DHT22;32398;49.112;8.598;2023-08-07T09:18:58;14.70;90.10
46139;DHT22;32398;49.112;8.598;2023-08-07T09:21:25;14.80;90.00
46139;DHT22;32398;49.112;8.598;2023-08-07T09:23:53;14.80;89.80
46139;DHT22;32398;49.112;8.598;2023-08-07T09:26:21;14.90;89.50
46139;DHT22;32398;49.112;8.598;2023-08-07T09:28:48;14.90;89.40
46139;DHT22;32398;49.112;8.598;2023-08-07T09:31:17;15.00;89.30
46139;DHT22;32398;49.112;8.598;2023-08-07T09:33:46;15.10;88.90
46139;DHT22;32398;49.112;8.598;2023-08-07T09:36:12;15.10;88.20
46139;DHT22;32398;49.112;8.598;2023-08-07T09:38:39;15.10;88.10
46139;DHT22;32398;49.112;8.598;2023-08-07T09:41:07;15.10;88.10
46139;DHT22;32398;49.112;8.598;2023-08-07T09:43:34;15.20;87.70
46139;DHT22;32398;49.112;8.598;2023-08-07T09:46:04;15.30;87.30
46139;DHT22;32398;49.112;8.598;2023-08-07T09:48:30;15.30;86.80
46139;DHT22;32398;49.112;8.598;2023-08-07T09:51:00;15.30;86.80
46139;DHT22;32398;49.112;8.598;2023-08-07T09:53:29;15.30;86.80
46139;DHT22;32398;49.112;8.598;2023-08-07T09:55:56;15.40;86.90
46139;DHT22;32398;49.112;8.598;2023-08-07T09:58:24;15.40;86.40
46139;DHT22;32398;49.112;8.598;2023-08-07T10:00:51;15.40;86.00
46139;DHT22;32398;49.112;8.598;2023-08-07T10:03:18;15.50;86.30
46139;DHT22;32398;49.112;8.598;2023-08-07T10:05:45;15.50;85.70
46139;DHT22;32398;49.112;8.598;2023-08-07T10:08:12;15.50;85.70
46139;DHT22;32398;49.112;8.598;2023-08-07T10:10:39;15.50;85.50
46139;DHT22;32398;49.112;8.598;2023-08-07T10:13:05;15.60;85.70
46139;DHT22;32398;49.112;8.598;2023-08-07T10:15:33;15.60;85.70
46139;DHT22;32398;49.112;8.598;2023-08-07T10:18:00;15.60;85.50
46139;DHT22;32398;49.112;8.598;2023-08-07T10:20:28;15.70;85.20
46139;DHT22;32398;49.112;8.598;2023-08-07T10:22:55;15.70;85.10
46139;DHT22;32398;49.112;8.598;2023-08-07T10:25:23;15.70;85.00
46139;DHT22;32398;49.112;8.598;2023-08-07T10:27:51;15.70;84.90
46139;DHT22;32398;49.112;8.598;2023-08-07T10:30:20;15.80;85.00
46139;DHT22;32398;49.112;8.598;2023-08-07T10:32:48;15.80;84.80
46139;DHT22;32398;49.112;8.598;2023-08-07T10:35:25;15.80;85.00
46139;DHT22;32398;49.112;8.598;2023-08-07T10:37:52;15.90;85.20
46139;DHT22;32398;49.112;8.598;2023-08-07T10:40:19;15.90;85.20
46139;DHT22;32398;49.112;8.598;2023-08-07T10:42:57;15.90;85.00
46139;DHT22;32398;49.112;8.598;2023-08-07T10:45:24;16.00;84.80
46139;DHT22;32398;49.112;8.598;2023-08-07T10:47:59;16.00;84.60
46139;DHT22;32398;49.112;8.598;2023-08-07T10:50:28;16.10;84.30
46139;DHT22;32398;49.112;8.598;2023-08-07T10:52:55;16.10;84.10
46139;DHT22;32398;49.112;8.598;2023-08-07T10:55:23;16.20;84.10
46139;DHT22;32398;49.112;8.598;2023-08-07T10:57:50;16.20;84.40
46139;DHT22;32398;49.112;8.598;2023-08-07T11:00:17;16.20;84.20
46139;DHT22;32398;49.112;8.598;2023-08-07T11:02:44;16.30;84.30
46139;DHT22;32398;49.112;8.598;2023-08-07T11:05:15;16.30;84.20
46139;DHT22;32398;49.112;8.598;2023-08-07T11:07:43;16.30;84.20
46139;DHT22;32398;49.112;8.598;2023-08-07T11:10:12;16.30;84.10
46139;DHT22;32398;49.112;8.598;2023-08-07T11:12:39;16.30;84.00
46139;DHT22;32398;49.112;8.598;2023-08-07T11:15:06;16.40;84.10
46139;DHT22;32398;49.112;8.598;2023-08-07T11:17:33;16.40;84.30
46139;DHT22;32398;49.112;8.598;2023-08-07T11:19:59;16.40;84.40
46139;DHT22;32398;49.112;8.598;2023-08-07T11:22:27;16.40;84.50
46139;DHT22;32398;49.112;8.598;2023-08-07T11:24:54;16.40;84.70
46139;DHT22;32398;49.112;8.598;2023-08-07T11:27:20;16.30;85.00
46139;DHT22;32398;49.112;8.598;2023-08-07T11:29:47;16.40;85.00
46139;DHT22;32398;49.112;8.598;2023-08-07T11:32:14;16.40;85.30
46139;DHT22;32398;49.112;8.598;2023-08-07T11:34:40;16.40;85.50
46139;DHT22;32398;49.112;8.598;2023-08-07T11:37:07;16.40;85.80
46139;DHT22;32398;49.112;8.598;2023-08-07T11:39:42;16.40;85.80
46139;DHT22;32398;49.112;8.598;2023-08-07T11:42:09;16.40;86.00
46139;DHT22;32398;49.112;8.598;2023-08-07T11:44:35;16.40;86.40
46139;DHT22;32398;49.112;8.598;2023-08-07T11:47:02;16.40;86.70
46139;DHT22;32398;49.112;8.598;2023-08-07T11:49:29;16.50;86.70
46139;DHT22;32398;49.112;8.598;2023-08-07T11:51:55;16.40;86.80
46139;DHT22;32398;49.112;8.598;2023-08-07T11:54:22;16.50;87.10
46139;DHT22;32398;49.112;8.598;2023-08-07T11:56:50;16.50;87.30
46139;DHT22;32398;49.112;8.598;2023-08-07T11:59:16;16.50;87.40
46139;DHT22;32398;49.112;8.598;2023-08-07T12:01:43;16.50;87.60
46139;DHT22;32398;49.112;8.598;2023-08-07T12:04:10;16.40;87.80
46139;DHT22;32398;49.112;8.598;2023-08-07T12:06:36;16.50;87.90
46139;DHT22;32398;49.112;8.598;2023-08-07T12:09:04;16.50;87.90
46139;DHT22;32398;49.112;8.598;2023-08-07T12:11:31;16.50;88.10
46139;DHT22;32398;49.112;8.598;2023-08-07T12:14:00;16.50;88.10
46139;DHT22;32398;49.112;8.598;2023-08-07T12:16:31;16.50;88.20
46139;DHT22;32398;49.112;8.598;2023-08-07T12:18:58;16.60;88.10
46139;DHT22;32398;49.112;8.598;2023-08-07T12:21:25;16.60;88.10
46139;DHT22;32398;49.112;8.598;2023-08-07T12:23:54;16.60;87.90
46139;DHT22;32398;49.112;8.598;2023-08-07T12:26:21;16.60;87.90
46139;DHT22;32398;49.112;8.598;2023-08-07T12:28:48;16.60;87.70
46139;DHT22;32398;49.112;8.598;2023-08-07T12:31:16;16.60;87.70
46139;DHT22;32398;49.112;8.598;2023-08-07T12:33:43;16.70;87.80
46139;DHT22;32398;49.112;8.598;2023-08-07T12:36:09;16.70;87.70
46139;DHT22;32398;49.112;8.598;2023-08-07T12:38:38;16.70;87.60
46139;DHT22;32398;49.112;8.598;2023-08-07T12:41:05;16.70;87.40
46139;DHT22;32398;49.112;8.598;2023-08-07T12:43:31;16.70;87.40
46139;DHT22;32398;49.112;8.598;2023-08-07T12:45:58;16.70;87.40
46139;DHT22;32398;49.112;8.598;2023-08-07T12:48:26;16.80;87.40
46139;DHT22;32398;49.112;8.598;2023-08-07T12:50:53;16.80;87.20
46139;DHT22;32398;49.112;8.598;2023-08-07T12:53:20;16.80;87.20
46139;DHT22;32398;49.112;8.598;2023-08-07T12:55:46;16.80;86.50
46139;DHT22;32398;49.112;8.598;2023-08-07T12:58:13;16.90;86.00
46139;DHT22;32398;49.112;8.598;2023-08-07T13:00:40;16.90;85.30
46139;DHT22;32398;49.112;8.598;2023-08-07T13:03:07;17.00;85.30
46139;DHT22;32398;49.112;8.598;2023-08-07T13:05:35;17.00;85.00
46139;DHT22;32398;49.112;8.598;2023-08-07T13:08:01;17.00;84.50
46139;DHT22;32398;49.112;8.598;2023-08-07T13:10:28;17.10;84.20
46139;DHT22;32398;49.112;8.598;2023-08-07T13:12:56;17.20;83.50
46139;DHT22;32398;49.112;8.598;2023-08-07T13:15:24;17.30;82.30
46139;DHT22;32398;49.112;8.598;2023-08-07T13:17:51;17.30;81.50
46139;DHT22;32398;49.112;8.598;2023-08-07T13:20:18;17.40;80.50
46139;DHT22;32398;49.112;8.598;2023-08-07T13:22:47;17.50;80.60
46139;DHT22;32398;49.112;8.598;2023-08-07T13:25:13;17.50;81.10
46139;DHT22;32398;49.112;8.598;2023-08-07T13:27:40;17.60;80.00
46139;DHT22;32398;49.112;8.598;2023-08-07T13:30:07;17.60;79.60
46139;DHT22;32398;49.112;8.598;2023-08-07T13:32:35;17.60;79.20
46139;DHT22;32398;49.112;8.598;2023-08-07T13:35:01;17.70;79.10
46139;DHT22;32398;49.112;8.598;2023-08-07T13:37:28;17.70;78.30
46139;DHT22;32398;49.112;8.598;2023-08-07T13:39:56;17.70;78.40
46139;DHT22;32398;49.112;8.598;2023-08-07T13:42:23;17.70;78.20
46139;DHT22;32398;49.112;8.598;2023-08-07T13:44:49;17.70;78.70
46139;DHT22;32398;49.112;8.598;2023-08-07T13:47:16;17.60;78.50
46139;DHT22;32398;49.112;8.598;2023-08-07T13:49:43;17.70;78.80
46139;DHT22;32398;49.112;8.598;2023-08-07T13:52:09;17.70;78.80
46139;DHT22;32398;49.112;8.598;2023-08-07T13:54:36;17.70;78.20
46139;DHT22;32398;49.112;8.598;2023-08-07T13:57:04;17.70;76.90
46139;DHT22;32398;49.112;8.598;2023-08-07T13:59:31;17.80;77.60
46139;DHT22;32398;49.112;8.598;2023-08-07T14:01:58;17.80;77.30
46139;DHT22;32398;49.112;8.598;2023-08-07T14:04:24;17.80;77.40
46139;DHT22;32398;49.112;8.598;2023-08-07T14:06:51;17.80;76.80
46139;DHT22;32398;49.112;8.598;2023-08-07T14:09:18;17.90;75.90
46139;DHT22;32398;49.112;8.598;2023-08-07T14:11:47;17.90;75.70
46139;DHT22;32398;49.112;8.598;2023-08-07T14:14:15;17.90;75.50
46139;DHT22;32398;49.112;8.598;2023-08-07T14:16:42;18.10;74.90
46139;DHT22;32398;49.112;8.598;2023-08-07T14:19:08;18.10;74.10
46139;DHT22;32398;49.112;8.598;2023-08-07T14:21:35;18.20;74.20
46139;DHT22;32398;49.112;8.598;2023-08-07T14:24:01;18.20;74.30
46139;DHT22;32398;49.112;8.598;2023-08-07T14:26:28;18.30;74.50
46139;DHT22;32398;49.112;8.598;2023-08-07T14:28:54;18.40;73.90
46139;DHT22;32398;49.112;8.598;2023-08-07T14:31:22;18.40;73.60
46139;DHT22;32398;49.112;8.598;2023-08-07T14:33:49;18.50;73.30
46139;DHT22;32398;49.112;8.598;2023-08-07T14:36:15;18.80;70.50
46139;DHT22;32398;49.112;8.598;2023-08-07T14:38:42;19.00;69.30
46139;DHT22;32398;49.112;8.598;2023-08-07T14:41:08;19.30;68.50
46139;DHT22;32398;49.112;8.598;2023-08-07T14:43:35;19.50;67.80
46139;DHT22;32398;49.112;8.598;2023-08-07T14:46:01;19.70;67.30
46139;DHT22;32398;49.112;8.598;2023-08-07T14:48:29;19.90;67.40
46139;DHT22;32398;49.112;8.598;2023-08-07T14:50:56;20.00;67.70
46139;DHT22;32398;49.112;8.598;2023-08-07T14:53:23;20.10;66.90
46139;DHT22;32398;49.112;8.598;2023-08-07T14:55:50;20.10;67.10
46139;DHT22;32398;49.112;8.598;2023-08-07T14:58:17;20.20;67.40
46139;DHT22;32398;49.112;8.598;2023-08-07T15:00:44;20.30;67.60
46139;DHT22;32398;49.112;8.598;2023-08-07T15:03:11;20.30;67.50
46139;DHT22;32398;49.112;8.598;2023-08-07T15:05:39;20.30;67.50
46139;DHT22;32398;49.112;8.598;2023-08-07T15:08:05;20.40;67.50
46139;DHT22;32398;49.112;8.598;2023-08-07T15:10:32;20.40;67.30
46139;DHT22;32398;49.112;8.598;2023-08-07T15:12:59;20.40;67.10
46139;DHT22;32398;49.112;8.598;2023-08-07T15:15:26;20.50;67.10
46139;DHT22;32398;49.112;8.598;2023-08-07T15:17:53;20.60;66.80
46139;DHT22;32398;49.112;8.598;2023-08-07T15:20:19;20.60;66.60
46139;DHT22;32398;49.112;8.598;2023-08-07T15:22:47;20.60;66.90
46139;DHT22;32398;49.112;8.598;2023-08-07T15:25:14;20.70;66.90
46139;DHT22;32398;49.112;8.598;2023-08-07T15:27:40;20.70;67.70
46139;DHT22;32398;49.112;8.598;2023-08-07T15:30:07;20.70;67.20
46139;DHT22;32398;49.112;8.598;2023-08-07T15:32:35;20.70;67.30
46139;DHT22;32398;49.112;8.598;2023-08-07T15:35:02;20.80;66.90
46139;DHT22;32398;49.112;8.598;2023-08-07T15:37:28;20.70;66.90
46139;DHT22;32398;49.112;8.598;2023-08-07T15:39:56;20.80;67.20
46139;DHT22;32398;49.112;8.598;2023-08-07T15:42:23;20.80;67.10
46139;DHT22;32398;49.112;8.598;2023-08-07T15:44:49;20.80;67.30
46139;DHT22;32398;49.112;8.598;2023-08-07T15:47:16;20.80;66.80
46139;DHT22;32398;49.112;8.598;2023-08-07T15:49:42;20.80;66.80
46139;DHT22;32398;49.112;8.598;2023-08-07T15:52:13;20.80;67.10